Sedbergh, United Kingdom
Current Conditions -  °F | °C
As of 9:50 PM on Saturday 25 Oct 2014 (Local Time) from EGXE Reporting Station
Broken Clouds Broken Clouds  
Wind Chill: 13°   Ceiling: 4900
Heat Index: 13°   Visibility: 6mi
Dew Point:   Wind: 17mph
Humidity: 72%   Direction: 200°SSW
Pressure: 29.88"   Gusts: NA
Location:  54.32°N, 2.53°W
Report Text: EGXE 252050Z AUTO 20015KT 9999 BKN049/// 13/08 Q1012
Loading
Personal Weather Stations






























Interactive Weather Map
Tropical Storm Tracking
New forecast layout! Learn more

10-Day Weather Forecast

Advertisements
Track Severe Weather on mobile